Time;durP1;ratioP1;P1;durP2;ratioP2;P2;SDS_P1;SDS_P2;PMS_P1;PMS_P2;Temp;Humidity;BMP_temperature;BMP_pressure;BME280_temperature;BME280_humidity;BME280_pressure;Samples;Min_cycle;Max_cycle;Signal;HPM_P1;HPM_P2
2021/10/11 00:01:44;;;;;;;;;;;7.20;95.00;;;;;;5003221;28;20018;-69
2021/10/11 00:04:10;;;;;;;;;;;7.20;95.00;;;;;;5000422;28;20072;-71
2021/10/11 00:06:35;;;;;;;;;;;7.20;95.10;;;;;;5002353;28;19909;-69
2021/10/11 00:09:01;;;;;;;;;;;7.30;95.10;;;;;;5006837;28;19913;-69
2021/10/11 00:11:26;;;;;;;;;;;7.30;95.10;;;;;;5007119;28;20446;-71
2021/10/11 00:13:52;;;;;;;;;;;7.40;95.10;;;;;;5003319;28;20602;-69
2021/10/11 00:16:17;;;;;;;;;;;7.40;95.10;;;;;;4987663;28;20012;-70
2021/10/11 00:18:43;;;;;;;;;;;7.50;95.10;;;;;;4992076;28;20257;-73
2021/10/11 00:21:11;;;;;;;;;;;7.50;95.00;;;;;;4998863;28;20295;-73
2021/10/11 00:23:36;;;;;;;;;;;7.50;94.90;;;;;;4999809;28;19909;-70
2021/10/11 00:26:02;;;;;;;;;;;7.50;94.80;;;;;;4992275;28;20381;-70
2021/10/11 00:28:27;;;;;;;;;;;7.50;94.80;;;;;;5001226;28;19941;-73
2021/10/11 00:30:53;;;;;;;;;;;7.60;94.80;;;;;;4996777;28;19909;-70
2021/10/11 00:33:18;;;;;;;;;;;7.60;94.70;;;;;;4991873;28;19909;-71
2021/10/11 00:35:44;;;;;;;;;;;7.60;94.50;;;;;;4999359;28;20423;-73
2021/10/11 00:38:09;;;;;;;;;;;7.60;94.50;;;;;;4982574;28;19914;-70
2021/10/11 00:40:35;;;;;;;;;;;7.60;94.50;;;;;;4989697;28;20372;-70
2021/10/11 00:43:00;;;;;;;;;;;7.70;94.60;;;;;;5003352;28;19964;-70
2021/10/11 00:45:26;;;;;;;;;;;7.70;94.60;;;;;;5005278;28;20428;-73
2021/10/11 00:47:51;;;;;;;;;;;7.80;94.50;;;;;;5004445;28;19918;-72
2021/10/11 00:50:17;;;;;;;;;;;7.80;94.40;;;;;;5002303;28;19909;-70
2021/10/11 00:52:42;;;;;;;;;;;7.90;94.30;;;;;;5004184;28;19917;-70
2021/10/11 00:55:08;;;;;;;;;;;7.80;94.30;;;;;;4994942;28;20017;-70
2021/10/11 00:57:33;;;;;;;;;;;7.80;94.40;;;;;;4993940;28;19916;-72
2021/10/11 00:59:59;;;;;;;;;;;7.90;94.50;;;;;;4996103;28;19996;-70
2021/10/11 01:02:24;;;;;;;;;;;7.90;94.60;;;;;;4994285;28;20016;-70
2021/10/11 01:04:50;;;;;;;;;;;7.80;94.90;;;;;;5002868;28;19914;-71
2021/10/11 01:07:15;;;;;;;;;;;7.80;95.20;;;;;;5003278;28;19924;-70
2021/10/11 01:09:41;;;;;;;;;;;7.80;95.60;;;;;;5004312;28;19967;-71
2021/10/11 01:12:06;;;;;;;;;;;7.80;95.90;;;;;;5004021;28;21229;-72
2021/10/11 01:14:33;;;;;;;;;;;7.80;96.10;;;;;;5002140;28;19993;-73
2021/10/11 01:16:58;;;;;;;;;;;7.80;96.30;;;;;;5004745;28;19968;-70
2021/10/11 01:19:24;;;;;;;;;;;7.80;96.60;;;;;;5000354;28;19910;-70
2021/10/11 01:21:49;;;;;;;;;;;7.80;96.70;;;;;;5000818;28;19913;-73
2021/10/11 01:24:15;;;;;;;;;;;7.80;96.90;;;;;;5002960;28;19913;-72
2021/10/11 01:26:42;;;;;;;;;;;7.90;97.10;;;;;;5004731;28;20162;-70
2021/10/11 01:29:08;;;;;;;;;;;7.90;97.10;;;;;;4997440;28;20112;-73
2021/10/11 01:31:34;;;;;;;;;;;7.90;97.20;;;;;;5001033;28;19942;-73
2021/10/11 01:34:00;;;;;;;;;;;7.90;97.30;;;;;;5000827;28;19976;-71
2021/10/11 01:36:26;;;;;;;;;;;7.90;97.50;;;;;;4993099;28;20375;-71
2021/10/11 01:38:53;;;;;;;;;;;7.90;97.50;;;;;;4999712;28;20304;-71
2021/10/11 01:41:18;;;;;;;;;;;7.90;97.70;;;;;;5001557;28;19909;-71
2021/10/11 01:43:44;;;;;;;;;;;7.90;97.80;;;;;;5003430;28;19936;-71
2021/10/11 01:46:09;;;;;;;;;;;8.00;97.80;;;;;;4999725;28;19980;-73
2021/10/11 01:48:34;;;;;;;;;;;8.00;97.90;;;;;;4999054;28;20008;-71
2021/10/11 01:51:00;;;;;;;;;;;8.00;98.00;;;;;;5004480;28;20004;-71
2021/10/11 01:53:25;;;;;;;;;;;8.00;98.10;;;;;;5003692;28;19913;-72
2021/10/11 01:55:51;;;;;;;;;;;8.10;98.20;;;;;;5009491;28;19916;-72
2021/10/11 01:58:16;;;;;;;;;;;8.20;98.30;;;;;;5002288;28;19956;-72
2021/10/11 02:00:42;;;;;;;;;;;8.10;98.20;;;;;;5002198;28;19921;-72
2021/10/11 02:03:07;;;;;;;;;;;8.10;98.30;;;;;;5007354;28;19914;-71
2021/10/11 02:05:34;;;;;;;;;;;8.10;98.30;;;;;;5009647;28;20339;-72
2021/10/11 02:07:59;;;;;;;;;;;8.10;98.30;;;;;;5006263;28;19917;-72
2021/10/11 02:10:25;;;;;;;;;;;8.10;98.30;;;;;;5006069;28;19917;-73
2021/10/11 02:12:50;;;;;;;;;;;8.20;98.40;;;;;;5007781;28;19920;-72
2021/10/11 02:15:16;;;;;;;;;;;8.10;98.40;;;;;;5008132;28;19913;-71
2021/10/11 02:17:41;;;;;;;;;;;8.10;98.40;;;;;;5006410;28;19917;-74
2021/10/11 02:20:07;;;;;;;;;;;8.10;98.40;;;;;;5001571;28;19964;-71
2021/10/11 02:22:33;;;;;;;;;;;8.10;98.40;;;;;;5003798;28;19910;-71
2021/10/11 02:24:58;;;;;;;;;;;8.20;98.50;;;;;;5002382;28;19915;-72
2021/10/11 02:27:24;;;;;;;;;;;8.20;98.60;;;;;;5003153;28;20052;-71
2021/10/11 02:29:49;;;;;;;;;;;8.20;98.60;;;;;;5003073;28;19936;-71
2021/10/11 02:32:15;;;;;;;;;;;8.20;98.60;;;;;;5006808;28;19924;-71
2021/10/11 02:34:40;;;;;;;;;;;8.30;98.60;;;;;;5006027;28;20341;-71
2021/10/11 02:37:06;;;;;;;;;;;8.30;98.70;;;;;;5006531;28;19917;-72
2021/10/11 02:39:32;;;;;;;;;;;8.30;98.70;;;;;;5004360;28;19952;-71
2021/10/11 02:41:57;;;;;;;;;;;8.30;98.70;;;;;;5003250;28;19920;-73
2021/10/11 02:44:22;;;;;;;;;;;8.30;98.80;;;;;;5004179;28;20007;-69
2021/10/11 02:46:48;;;;;;;;;;;8.30;98.80;;;;;;5001311;28;19909;-69
2021/10/11 02:49:14;;;;;;;;;;;8.30;98.80;;;;;;5000527;28;19936;-69
2021/10/11 02:51:39;;;;;;;;;;;8.30;98.80;;;;;;5003914;28;20273;-69
2021/10/11 02:54:05;;;;;;;;;;;8.30;98.80;;;;;;5002760;28;19966;-68
2021/10/11 02:56:30;;;;;;;;;;;8.30;98.80;;;;;;4998394;28;19913;-69
2021/10/11 02:58:56;;;;;;;;;;;8.30;98.80;;;;;;4993450;28;20335;-68
2021/10/11 03:01:21;;;;;;;;;;;8.30;98.90;;;;;;5006567;28;19909;-68
2021/10/11 03:03:47;;;;;;;;;;;8.20;98.90;;;;;;5002728;28;19920;-68
2021/10/11 03:06:12;;;;;;;;;;;8.30;98.90;;;;;;5001301;28;19909;-68
2021/10/11 03:08:38;;;;;;;;;;;8.30;99.00;;;;;;5006673;28;19910;-68
2021/10/11 03:11:04;;;;;;;;;;;8.20;99.00;;;;;;5008380;28;19916;-68
2021/10/11 03:13:29;;;;;;;;;;;8.20;99.00;;;;;;5000187;28;19925;-68
2021/10/11 03:15:55;;;;;;;;;;;8.30;99.00;;;;;;4998836;28;19913;-66
2021/10/11 03:18:21;;;;;;;;;;;8.30;99.00;;;;;;5000684;28;19909;-69
2021/10/11 03:20:46;;;;;;;;;;;8.30;99.10;;;;;;5001708;28;20051;-68
2021/10/11 03:23:12;;;;;;;;;;;8.40;99.10;;;;;;5004117;28;19916;-68
2021/10/11 03:25:37;;;;;;;;;;;8.40;99.10;;;;;;5004105;28;19913;-68
2021/10/11 03:28:03;;;;;;;;;;;8.40;99.10;;;;;;5004305;28;20411;-67
2021/10/11 03:30:29;;;;;;;;;;;8.40;99.10;;;;;;5007906;28;19913;-67
2021/10/11 03:32:54;;;;;;;;;;;8.40;99.20;;;;;;5005590;28;20014;-67
2021/10/11 03:35:20;;;;;;;;;;;8.40;99.20;;;;;;4991429;28;19940;-68
2021/10/11 03:37:45;;;;;;;;;;;8.40;99.10;;;;;;5003557;28;19909;-68
2021/10/11 03:40:11;;;;;;;;;;;8.40;99.20;;;;;;5001616;28;19933;-68
2021/10/11 03:42:37;;;;;;;;;;;8.40;99.20;;;;;;5006154;28;19914;-67
2021/10/11 03:45:02;;;;;;;;;;;8.50;99.20;;;;;;5007021;28;19909;-68
2021/10/11 03:47:28;;;;;;;;;;;8.40;99.20;;;;;;5001371;28;20296;-67
2021/10/11 03:49:53;;;;;;;;;;;8.50;99.20;;;;;;5000813;28;20172;-68
2021/10/11 03:52:19;;;;;;;;;;;8.50;99.30;;;;;;5000089;28;19913;-68
2021/10/11 03:54:44;;;;;;;;;;;8.50;99.30;;;;;;5006552;28;19909;-67
2021/10/11 03:57:10;;;;;;;;;;;8.50;99.30;;;;;;5005249;28;20452;-67
2021/10/11 03:59:35;;;;;;;;;;;8.50;99.30;;;;;;5007983;28;19910;-68
2021/10/11 04:02:01;;;;;;;;;;;8.50;99.30;;;;;;5004329;28;20364;-66
2021/10/11 04:04:27;;;;;;;;;;;8.50;99.30;;;;;;5004947;28;19928;-66
2021/10/11 04:06:55;;;;;;;;;;;8.50;99.40;;;;;;5003366;28;20217;-67
2021/10/11 04:09:26;;;;;;;;;;;8.50;99.40;;;;;;5002993;28;19913;-68
2021/10/11 04:11:52;;;;;;;;;;;8.50;99.40;;;;;;5002748;28;19920;-68
2021/10/11 04:14:18;;;;;;;;;;;8.50;99.50;;;;;;5006484;28;20007;-68
2021/10/11 04:16:43;;;;;;;;;;;8.50;99.50;;;;;;5000423;28;19926;-68
2021/10/11 04:19:09;;;;;;;;;;;8.50;99.50;;;;;;5005425;28;19909;-68
2021/10/11 04:21:34;;;;;;;;;;;8.50;99.50;;;;;;5002293;28;20471;-64
2021/10/11 04:24:00;;;;;;;;;;;8.60;99.60;;;;;;4990832;28;19909;-65
2021/10/11 04:26:25;;;;;;;;;;;8.50;99.60;;;;;;4990248;28;19917;-65
2021/10/11 04:28:51;;;;;;;;;;;8.60;99.60;;;;;;5006161;28;20008;-64
2021/10/11 04:31:16;;;;;;;;;;;8.60;99.60;;;;;;5006716;28;20105;-64
2021/10/11 04:33:42;;;;;;;;;;;8.60;99.60;;;;;;5000944;28;19910;-65
2021/10/11 04:36:07;;;;;;;;;;;8.60;99.60;;;;;;4990354;28;19968;-63
2021/10/11 04:38:33;;;;;;;;;;;8.60;99.70;;;;;;5006023;28;19917;-64
2021/10/11 04:40:58;;;;;;;;;;;8.70;99.70;;;;;;5006697;28;19981;-64
2021/10/11 04:43:24;;;;;;;;;;;8.70;99.70;;;;;;5001814;28;19932;-64
2021/10/11 04:45:49;;;;;;;;;;;8.70;99.70;;;;;;5004507;28;20392;-65
2021/10/11 04:48:15;;;;;;;;;;;8.70;99.70;;;;;;5004819;28;19913;-64
2021/10/11 04:50:40;;;;;;;;;;;8.70;99.80;;;;;;5002725;28;20349;-65
2021/10/11 04:53:06;;;;;;;;;;;8.70;99.80;;;;;;5001772;28;19918;-63
2021/10/11 04:55:31;;;;;;;;;;;8.80;99.80;;;;;;4992010;28;19910;-64
2021/10/11 04:57:58;;;;;;;;;;;8.80;99.80;;;;;;4996387;28;19913;-63
2021/10/11 05:00:24;;;;;;;;;;;8.80;99.80;;;;;;4992454;28;19922;-65
2021/10/11 05:02:49;;;;;;;;;;;8.80;99.80;;;;;;4993186;28;19914;-63
2021/10/11 05:05:15;;;;;;;;;;;8.90;99.80;;;;;;5003381;28;19919;-64
2021/10/11 05:07:40;;;;;;;;;;;8.90;99.90;;;;;;4993977;28;19924;-64
2021/10/11 05:10:06;;;;;;;;;;;8.90;99.90;;;;;;4991272;28;20168;-64
2021/10/11 05:12:33;;;;;;;;;;;8.90;99.90;;;;;;4997505;28;20287;-63
2021/10/11 05:14:58;;;;;;;;;;;9.00;99.90;;;;;;4999574;28;20684;-63
2021/10/11 05:17:24;;;;;;;;;;;9.00;99.90;;;;;;5003693;28;19910;-63
2021/10/11 05:19:49;;;;;;;;;;;9.00;99.90;;;;;;4998977;28;19915;-64
2021/10/11 05:22:15;;;;;;;;;;;9.10;99.90;;;;;;4999260;28;19917;-65
2021/10/11 05:24:41;;;;;;;;;;;9.10;99.90;;;;;;5002707;28;19955;-64
2021/10/11 05:27:07;;;;;;;;;;;9.10;99.90;;;;;;5004904;28;20416;-64
2021/10/11 05:29:32;;;;;;;;;;;9.10;99.90;;;;;;4986025;28;19979;-65
2021/10/11 05:31:58;;;;;;;;;;;9.10;99.90;;;;;;5017813;28;20314;-64
2021/10/11 05:34:24;;;;;;;;;;;9.20;99.90;;;;;;5013231;28;19991;-64
2021/10/11 05:36:50;;;;;;;;;;;9.20;99.90;;;;;;5002805;28;19917;-64
2021/10/11 05:39:16;;;;;;;;;;;9.20;99.90;;;;;;4999829;28;19913;-65
2021/10/11 05:41:41;;;;;;;;;;;9.30;99.90;;;;;;4998839;28;19909;-65
2021/10/11 05:44:07;;;;;;;;;;;9.20;99.90;;;;;;5007592;28;19917;-64
2021/10/11 05:46:32;;;;;;;;;;;9.20;99.90;;;;;;5005429;28;19932;-64
2021/10/11 05:48:58;;;;;;;;;;;9.30;99.90;;;;;;5011584;28;20372;-64
2021/10/11 05:51:23;;;;;;;;;;;9.30;99.90;;;;;;5007757;28;20012;-65
2021/10/11 05:53:49;;;;;;;;;;;9.30;99.90;;;;;;4995699;28;19917;-65
2021/10/11 05:56:14;;;;;;;;;;;9.30;99.90;;;;;;5008163;28;20154;-65
2021/10/11 05:58:39;;;;;;;;;;;9.20;99.90;;;;;;5006467;28;19909;-65
2021/10/11 06:01:05;;;;;;;;;;;9.30;99.90;;;;;;5014618;28;19920;-64
2021/10/11 06:03:30;;;;;;;;;;;9.30;99.90;;;;;;5016376;28;19910;-64
2021/10/11 06:05:56;;;;;;;;;;;9.30;99.90;;;;;;5016509;28;19913;-64
2021/10/11 06:08:21;;;;;;;;;;;9.30;99.90;;;;;;5002197;28;19913;-65
2021/10/11 06:10:47;;;;;;;;;;;9.30;99.90;;;;;;5011042;28;19924;-64
2021/10/11 06:13:12;;;;;;;;;;;9.30;99.90;;;;;;5012998;28;19936;-64
2021/10/11 06:15:38;;;;;;;;;;;9.20;99.90;;;;;;5001372;28;19972;-64
2021/10/11 06:18:03;;;;;;;;;;;9.10;99.90;;;;;;5008987;28;19925;-65
2021/10/11 06:20:29;;;;;;;;;;;9.10;99.90;;;;;;5005026;28;19914;-65
2021/10/11 06:22:55;;;;;;;;;;;9.10;99.90;;;;;;4998620;28;19910;-64
2021/10/11 06:25:20;;;;;;;;;;;9.00;99.90;;;;;;4995962;28;19913;-64
2021/10/11 06:27:46;;;;;;;;;;;9.10;99.90;;;;;;5013744;28;20296;-64
2021/10/11 06:30:12;;;;;;;;;;;9.10;99.90;;;;;;5017907;28;19952;-64
2021/10/11 06:32:37;;;;;;;;;;;9.20;99.90;;;;;;4999656;28;19975;-63
2021/10/11 06:35:03;;;;;;;;;;;9.30;99.90;;;;;;5002796;28;19909;-62
2021/10/11 06:37:28;;;;;;;;;;;9.20;99.90;;;;;;5001818;28;19909;-61
2021/10/11 06:39:54;;;;;;;;;;;9.30;99.90;;;;;;5001908;28;19916;-64
2021/10/11 06:42:19;;;;;;;;;;;9.40;99.90;;;;;;5003821;28;20399;-63
2021/10/11 06:44:46;;;;;;;;;;;9.40;99.90;;;;;;5006048;28;19995;-64
2021/10/11 06:47:12;;;;;;;;;;;9.60;99.90;;;;;;5006331;28;20473;-63
2021/10/11 06:49:38;;;;;;;;;;;9.60;99.90;;;;;;5005346;28;19996;-62
2021/10/11 06:52:03;;;;;;;;;;;9.60;99.90;;;;;;5008152;28;19927;-63
2021/10/11 06:54:30;;;;;;;;;;;9.60;99.90;;;;;;5001518;28;19910;-64
2021/10/11 06:56:56;;;;;;;;;;;9.60;99.90;;;;;;4999605;28;20079;-62
2021/10/11 06:59:21;;;;;;;;;;;9.60;99.90;;;;;;5007261;28;20015;-62
2021/10/11 07:01:47;;;;;;;;;;;9.60;99.90;;;;;;5006413;28;20355;-61
2021/10/11 07:04:13;;;;;;;;;;;9.80;99.90;;;;;;4996353;28;19952;-64
2021/10/11 07:06:39;;;;;;;;;;;9.80;99.90;;;;;;4997370;28;19906;-63
2021/10/11 07:09:04;;;;;;;;;;;10.00;99.90;;;;;;5005188;28;20396;-63
2021/10/11 07:11:30;;;;;;;;;;;10.20;99.90;;;;;;5000824;28;19963;-65
2021/10/11 07:13:55;;;;;;;;;;;10.30;99.90;;;;;;5000807;28;19910;-64
2021/10/11 07:16:21;;;;;;;;;;;10.30;99.70;;;;;;5014396;28;19910;-63
2021/10/11 07:18:46;;;;;;;;;;;10.40;99.70;;;;;;5000268;28;19909;-65
2021/10/11 07:21:12;;;;;;;;;;;10.40;99.70;;;;;;5001527;28;20350;-64
2021/10/11 07:23:37;;;;;;;;;;;10.40;99.50;;;;;;5000377;28;19916;-65
2021/10/11 07:26:05;;;;;;;;;;;10.30;99.60;;;;;;4994166;28;20056;-65
2021/10/11 07:28:30;;;;;;;;;;;10.40;99.60;;;;;;5004214;28;19913;-63
2021/10/11 07:30:56;;;;;;;;;;;10.30;99.50;;;;;;5008867;28;19913;-64
2021/10/11 07:33:22;;;;;;;;;;;10.40;99.50;;;;;;5005941;28;19913;-65
2021/10/11 07:35:48;;;;;;;;;;;10.50;99.40;;;;;;4996405;28;19944;-65
2021/10/11 07:38:13;;;;;;;;;;;10.60;99.40;;;;;;5001364;28;19914;-64
2021/10/11 07:40:39;;;;;;;;;;;10.70;99.30;;;;;;5002962;28;19905;-63
2021/10/11 07:43:04;;;;;;;;;;;10.80;99.20;;;;;;4995951;28;19925;-64
2021/10/11 07:45:30;;;;;;;;;;;10.90;99.00;;;;;;5004768;28;19913;-64
2021/10/11 07:47:56;;;;;;;;;;;11.00;98.80;;;;;;5013280;28;19964;-64
2021/10/11 07:50:21;;;;;;;;;;;10.90;98.60;;;;;;4998984;28;19992;-64
2021/10/11 07:52:47;;;;;;;;;;;10.90;98.20;;;;;;4997917;28;19933;-64
2021/10/11 07:55:13;;;;;;;;;;;11.00;98.20;;;;;;5006707;28;20119;-65
2021/10/11 07:57:39;;;;;;;;;;;10.90;98.00;;;;;;5005184;28;19910;-64
2021/10/11 08:00:06;;;;;;;;;;;11.00;97.90;;;;;;5004776;28;19909;-64
2021/10/11 08:02:31;;;;;;;;;;;11.00;97.80;;;;;;5002029;28;19909;-64
2021/10/11 08:04:57;;;;;;;;;;;11.00;97.20;;;;;;5005127;28;20288;-64
2021/10/11 08:07:22;;;;;;;;;;;11.10;97.20;;;;;;4994855;28;19963;-65
2021/10/11 08:09:47;;;;;;;;;;;11.10;96.80;;;;;;4994183;28;19917;-65
2021/10/11 08:12:13;;;;;;;;;;;11.20;96.50;;;;;;4997061;28;19913;-63
2021/10/11 08:14:38;;;;;;;;;;;11.30;96.40;;;;;;5001255;28;20521;-65
2021/10/11 08:17:04;;;;;;;;;;;11.40;96.20;;;;;;4997379;28;19905;-64
2021/10/11 08:19:29;;;;;;;;;;;11.40;95.60;;;;;;5004617;28;19916;-65
2021/10/11 08:21:55;;;;;;;;;;;11.50;95.50;;;;;;5001694;28;20311;-65
2021/10/11 08:24:20;;;;;;;;;;;11.70;95.00;;;;;;4997928;28;20012;-65
2021/10/11 08:26:46;;;;;;;;;;;11.90;94.40;;;;;;4998675;28;20287;-64
2021/10/11 08:29:12;;;;;;;;;;;12.00;94.40;;;;;;5011190;28;19913;-64
2021/10/11 08:31:38;;;;;;;;;;;11.80;93.30;;;;;;5012471;28;19979;-65
2021/10/11 08:34:04;;;;;;;;;;;11.70;94.00;;;;;;4990648;28;20353;-65
2021/10/11 08:36:29;;;;;;;;;;;11.80;94.40;;;;;;4999612;28;19906;-65
2021/10/11 08:38:55;;;;;;;;;;;12.00;94.40;;;;;;5004879;28;19967;-65
2021/10/11 08:41:21;;;;;;;;;;;12.20;93.50;;;;;;5008508;28;20549;-65
2021/10/11 08:43:46;;;;;;;;;;;12.50;93.30;;;;;;5008941;28;19995;-64
2021/10/11 08:46:12;;;;;;;;;;;12.50;92.40;;;;;;5021441;28;19909;-64
2021/10/11 08:48:38;;;;;;;;;;;12.60;91.90;;;;;;5011555;28;19917;-64
2021/10/11 08:51:04;;;;;;;;;;;12.70;91.20;;;;;;5002519;28;19924;-65
2021/10/11 08:53:30;;;;;;;;;;;12.80;91.20;;;;;;5013861;28;19966;-63
2021/10/11 08:55:56;;;;;;;;;;;12.90;90.20;;;;;;5001089;28;19916;-64
2021/10/11 08:58:21;;;;;;;;;;;13.00;90.40;;;;;;4995869;28;19909;-65
2021/10/11 09:00:47;;;;;;;;;;;13.10;89.90;;;;;;4994706;28;19925;-64
2021/10/11 09:03:19;;;;;;;;;;;13.10;89.60;;;;;;5003033;28;19909;-65
2021/10/11 09:05:52;;;;;;;;;;;13.10;89.00;;;;;;4999116;28;19913;-65
2021/10/11 09:08:18;;;;;;;;;;;13.40;90.10;;;;;;4988538;28;20373;-65
2021/10/11 09:10:49;;;;;;;;;;;13.40;88.80;;;;;;5005907;28;19921;-65
2021/10/11 09:13:14;;;;;;;;;;;13.40;87.90;;;;;;5009140;28;19913;-65
2021/10/11 09:15:40;;;;;;;;;;;13.60;86.00;;;;;;5001686;28;19932;-65
2021/10/11 09:18:06;;;;;;;;;;;13.60;86.20;;;;;;5007930;28;20398;-65
2021/10/11 09:20:36;;;;;;;;;;;13.90;85.20;;;;;;5004808;28;19916;-65
2021/10/11 09:23:02;;;;;;;;;;;14.00;85.20;;;;;;4993205;28;19921;-63
2021/10/11 09:25:35;;;;;;;;;;;14.20;85.60;;;;;;4990498;28;20051;-63
2021/10/11 09:28:01;;;;;;;;;;;14.10;84.90;;;;;;4994537;28;19909;-65
2021/10/11 09:30:28;;;;;;;;;;;14.30;85.30;;;;;;4993217;28;20466;-65
2021/10/11 09:33:05;;;;;;;;;;;14.50;84.10;;;;;;5006784;28;19917;-65
2021/10/11 09:35:31;;;;;;;;;;;14.50;82.90;;;;;;5002559;28;19916;-65
2021/10/11 09:37:57;;;;;;;;;;;14.50;80.90;;;;;;5001257;28;19922;-64
2021/10/11 09:40:24;;;;;;;;;;;14.70;81.90;;;;;;4998133;28;20140;-65
2021/10/11 09:42:50;;;;;;;;;;;14.80;81.90;;;;;;5000536;28;19964;-65
2021/10/11 09:45:21;;;;;;;;;;;14.80;81.20;;;;;;5008566;28;20283;-65
2021/10/11 09:47:46;;;;;;;;;;;14.90;81.40;;;;;;5007529;28;19909;-65
2021/10/11 09:50:14;;;;;;;;;;;15.00;81.00;;;;;;5010941;28;19933;-64
2021/10/11 09:52:41;;;;;;;;;;;15.20;81.10;;;;;;5000470;28;20335;-65
2021/10/11 09:55:07;;;;;;;;;;;15.10;76.80;;;;;;4989306;28;19943;-64
2021/10/11 09:57:34;;;;;;;;;;;15.20;76.20;;;;;;4997069;28;20423;-64
2021/10/11 10:00:00;;;;;;;;;;;15.20;77.30;;;;;;4992635;28;19967;-65
2021/10/11 10:02:26;;;;;;;;;;;15.50;77.80;;;;;;4996333;28;19976;-66
2021/10/11 10:04:55;;;;;;;;;;;15.30;76.00;;;;;;5003355;28;20376;-66
2021/10/11 10:07:22;;;;;;;;;;;14.90;75.90;;;;;;5004327;28;19909;-65
2021/10/11 10:09:49;;;;;;;;;;;15.00;75.80;;;;;;4998994;28;19909;-65
2021/10/11 10:12:15;;;;;;;;;;;15.30;76.00;;;;;;5008036;28;19913;-65
2021/10/11 10:14:40;;;;;;;;;;;15.20;76.60;;;;;;5017612;28;19916;-65
2021/10/11 10:17:06;;;;;;;;;;;15.10;76.20;;;;;;5009492;28;20039;-64
2021/10/11 10:19:36;;;;;;;;;;;15.00;75.40;;;;;;5001424;28;19916;-65
2021/10/11 10:22:17;;;;;;;;;;;15.00;76.00;;;;;;5004897;28;20494;-65
2021/10/11 10:24:43;;;;;;;;;;;15.00;75.80;;;;;;4999003;28;19932;-64
2021/10/11 10:27:13;;;;;;;;;;;15.10;76.20;;;;;;5007412;28;19999;-63
2021/10/11 10:29:40;;;;;;;;;;;15.10;75.00;;;;;;5008996;28;19929;-63
2021/10/11 10:32:06;;;;;;;;;;;15.30;75.00;;;;;;5009057;28;19940;-64
2021/10/11 10:34:32;;;;;;;;;;;15.20;74.90;;;;;;5009542;28;20318;-66
2021/10/11 10:37:05;;;;;;;;;;;15.00;76.50;;;;;;5010368;28;19920;-64
2021/10/11 10:39:38;;;;;;;;;;;15.00;76.50;;;;;;5002473;28;19983;-62
2021/10/11 10:42:03;;;;;;;;;;;15.00;77.10;;;;;;4995584;28;19917;-63
2021/10/11 10:44:29;;;;;;;;;;;14.80;76.50;;;;;;4993273;28;20354;-65
2021/10/11 10:46:56;;;;;;;;;;;14.80;76.30;;;;;;5000769;28;19909;-65
2021/10/11 10:49:32;;;;;;;;;;;14.70;76.10;;;;;;4996006;28;20368;-65
2021/10/11 10:51:58;;;;;;;;;;;14.70;76.70;;;;;;5002720;28;19983;-64
2021/10/11 10:54:34;;;;;;;;;;;14.90;77.40;;;;;;5008513;28;19913;-65
2021/10/11 10:57:00;;;;;;;;;;;15.00;76.00;;;;;;4995244;28;19917;-65
2021/10/11 10:59:25;;;;;;;;;;;15.20;75.20;;;;;;5005415;28;19955;-65
2021/10/11 11:02:10;;;;;;;;;;;15.40;74.90;;;;;;5001287;28;20431;-64
2021/10/11 11:04:37;;;;;;;;;;;15.60;73.50;;;;;;5002536;28;19968;-65
2021/10/11 11:07:08;;;;;;;;;;;15.90;72.00;;;;;;5000030;28;19931;-65
2021/10/11 11:09:41;;;;;;;;;;;15.80;70.40;;;;;;4999904;28;20327;-65
2021/10/11 11:12:06;;;;;;;;;;;16.10;70.50;;;;;;4999888;28;19976;-65
2021/10/11 11:14:33;;;;;;;;;;;16.40;71.20;;;;;;5022023;28;19956;-65
2021/10/11 11:16:58;;;;;;;;;;;16.50;67.40;;;;;;5006881;28;20683;-66
2021/10/11 11:19:34;;;;;;;;;;;16.60;67.30;;;;;;5002274;28;19913;-66
2021/10/11 11:21:59;;;;;;;;;;;16.80;66.40;;;;;;5004151;28;19920;-66
2021/10/11 11:24:25;;;;;;;;;;;16.70;66.50;;;;;;5001810;28;20276;-65
2021/10/11 11:26:50;;;;;;;;;;;16.30;67.40;;;;;;4995539;28;19916;-65
2021/10/11 11:29:16;;;;;;;;;;;16.40;66.20;;;;;;5018483;28;19909;-65
2021/10/11 11:31:51;;;;;;;;;;;16.90;64.90;;;;;;4996865;28;20474;-66
2021/10/11 11:34:17;;;;;;;;;;;16.70;65.60;;;;;;4999302;28;20308;-65
2021/10/11 11:37:09;;;;;;;;;;;16.70;65.30;;;;;;4993685;28;19924;-67
2021/10/11 11:39:34;;;;;;;;;;;16.70;64.60;;;;;;4996004;28;20295;-66
2021/10/11 11:42:00;;;;;;;;;;;17.00;65.30;;;;;;5003069;28;19920;-65
2021/10/11 11:44:26;;;;;;;;;;;16.70;66.50;;;;;;5012291;28;19919;-66
2021/10/11 11:47:18;;;;;;;;;;;17.10;65.80;;;;;;5015669;28;19909;-65
2021/10/11 11:49:43;;;;;;;;;;;17.00;65.90;;;;;;5004581;28;19909;-66
2021/10/11 11:52:10;;;;;;;;;;;16.50;67.10;;;;;;4992843;28;19921;-64
2021/10/11 11:54:37;;;;;;;;;;;16.10;68.60;;;;;;5002037;28;20012;-65
2021/10/11 11:57:02;;;;;;;;;;;15.60;71.20;;;;;;5001020;28;19973;-64
2021/10/11 11:59:28;;;;;;;;;;;14.90;76.30;;;;;;5004060;28;19925;-66
2021/10/11 12:01:54;;;;;;;;;;;14.10;80.90;;;;;;5001240;28;19965;-65
2021/10/11 12:04:20;;;;;;;;;;;13.40;85.00;;;;;;4984914;28;19920;-66
2021/10/11 12:06:46;;;;;;;;;;;13.20;87.30;;;;;;5001395;28;20396;-66
2021/10/11 12:09:13;;;;;;;;;;;13.10;89.30;;;;;;5005503;28;19909;-67
2021/10/11 12:11:39;;;;;;;;;;;13.10;88.70;;;;;;5005264;28;19940;-66
2021/10/11 12:14:05;;;;;;;;;;;13.20;89.90;;;;;;5003047;28;20005;-67
2021/10/11 12:16:31;;;;;;;;;;;13.30;89.40;;;;;;5007278;28;20073;-65
2021/10/11 12:18:59;;;;;;;;;;;14.00;88.60;;;;;;5013527;28;20008;-66
2021/10/11 12:21:26;;;;;;;;;;;14.20;88.00;;;;;;5002646;28;19913;-66
2021/10/11 12:23:53;;;;;;;;;;;14.20;86.40;;;;;;4999970;28;19981;-67
2021/10/11 12:26:19;;;;;;;;;;;14.10;83.60;;;;;;5001508;28;19960;-66
2021/10/11 12:28:58;;;;;;;;;;;14.30;84.70;;;;;;4996681;28;20558;-67
2021/10/11 12:31:25;;;;;;;;;;;14.70;83.60;;;;;;5005220;28;20381;-67
2021/10/11 12:33:51;;;;;;;;;;;14.60;82.60;;;;;;4996063;28;20327;-66
2021/10/11 12:36:17;;;;;;;;;;;14.40;82.50;;;;;;4994427;28;20050;-66
2021/10/11 12:38:42;;;;;;;;;;;14.30;81.90;;;;;;4995536;28;20356;-66
2021/10/11 12:41:12;;;;;;;;;;;14.10;82.40;;;;;;5008155;28;19929;-66
2021/10/11 12:43:38;;;;;;;;;;;14.10;83.30;;;;;;5011673;28;19909;-66
2021/10/11 12:46:09;;;;;;;;;;;14.10;83.60;;;;;;5006802;28;19921;-66
2021/10/11 12:48:35;;;;;;;;;;;13.30;86.10;;;;;;5008534;28;20413;-66
2021/10/11 12:51:02;;;;;;;;;;;13.10;88.60;;;;;;5000662;28;19915;-65
2021/10/11 12:53:28;;;;;;;;;;;13.30;88.90;;;;;;4995170;28;19913;-67
2021/10/11 12:55:54;;;;;;;;;;;13.00;87.80;;;;;;4999660;28;20199;-66
2021/10/11 12:58:22;;;;;;;;;;;12.80;88.00;;;;;;4993960;28;20551;-66
2021/10/11 13:00:48;;;;;;;;;;;12.70;88.50;;;;;;5002929;28;20372;-66
2021/10/11 13:03:13;;;;;;;;;;;12.70;88.20;;;;;;5001414;28;19957;-66
2021/10/11 13:05:39;;;;;;;;;;;12.80;88.80;;;;;;5007996;28;19913;-65
2021/10/11 13:08:08;;;;;;;;;;;12.90;90.10;;;;;;5007569;28;19952;-66
2021/10/11 13:10:34;;;;;;;;;;;12.60;89.30;;;;;;5017263;28;19935;-66
2021/10/11 13:13:00;;;;;;;;;;;12.60;89.80;;;;;;5006692;28;19913;-66
2021/10/11 13:15:25;;;;;;;;;;;12.40;89.20;;;;;;5011648;28;19909;-66
2021/10/11 13:17:51;;;;;;;;;;;12.30;90.30;;;;;;5001934;28;19913;-64
2021/10/11 13:20:16;;;;;;;;;;;12.40;91.10;;;;;;5016907;28;19913;-67
2021/10/11 13:22:42;;;;;;;;;;;13.00;91.60;;;;;;5003881;28;20005;-65
2021/10/11 13:25:07;;;;;;;;;;;13.80;89.20;;;;;;5007312;28;20355;-66
2021/10/11 13:27:33;;;;;;;;;;;14.20;86.80;;;;;;5011194;28;19909;-66
2021/10/11 14:29:35;;;;;;;;;;;13.90;79.00;;;;;;5010638;28;19949;-64
2021/10/11 16:04:22;;;;;;;;;;;12.00;87.20;;;;;;5008047;28;19944;-67
2021/10/11 16:06:48;;;;;;;;;;;11.90;87.80;;;;;;5015915;28;19987;-67
2021/10/11 16:09:15;;;;;;;;;;;11.80;88.30;;;;;;5010524;28;19951;-67
2021/10/11 16:11:40;;;;;;;;;;;11.60;88.90;;;;;;4999052;28;19910;-66
2021/10/11 16:14:06;;;;;;;;;;;11.60;89.30;;;;;;4996195;28;20111;-67
2021/10/11 16:16:32;;;;;;;;;;;11.50;89.80;;;;;;5003985;28;20265;-66
2021/10/11 16:18:57;;;;;;;;;;;11.50;90.00;;;;;;5005159;28;19905;-65
2021/10/11 16:21:23;;;;;;;;;;;11.50;90.50;;;;;;5002216;28;19909;-67
2021/10/11 16:23:48;;;;;;;;;;;11.50;91.10;;;;;;4995934;28;20000;-66
2021/10/11 16:26:15;;;;;;;;;;;11.40;91.60;;;;;;5000014;28;19913;-66
2021/10/11 16:28:41;;;;;;;;;;;11.40;91.80;;;;;;5002499;28;20279;-66
2021/10/11 16:31:08;;;;;;;;;;;11.30;91.60;;;;;;5004327;28;19912;-66
2021/10/11 16:33:34;;;;;;;;;;;11.30;91.20;;;;;;4998913;28;19944;-66
2021/10/11 16:36:00;;;;;;;;;;;11.20;91.00;;;;;;5003547;28;19917;-66
2021/10/11 16:38:26;;;;;;;;;;;11.10;91.20;;;;;;5005325;28;20280;-65
2021/10/11 16:40:51;;;;;;;;;;;11.10;91.40;;;;;;5007378;28;19916;-65
2021/10/11 16:43:17;;;;;;;;;;;11.00;91.60;;;;;;5002024;28;19916;-65
2021/10/11 16:45:43;;;;;;;;;;;11.00;91.70;;;;;;5005186;28;19910;-66
2021/10/11 16:48:08;;;;;;;;;;;10.90;92.10;;;;;;5005428;28;19916;-65
2021/10/11 16:50:34;;;;;;;;;;;10.90;92.10;;;;;;5001882;28;20284;-66